createdAt,value
2018-07-30T00:00:42.344Z,9.13
2018-07-30T00:03:11.604Z,9.50
2018-07-30T00:05:41.757Z,8.97
2018-07-30T00:08:10.212Z,9.60
2018-07-30T00:10:38.891Z,9.70
2018-07-30T00:13:07.712Z,9.33
2018-07-30T00:15:36.952Z,8.83
2018-07-30T00:18:06.246Z,9.97
2018-07-30T00:20:34.963Z,9.70
2018-07-30T00:23:07.851Z,9.43
2018-07-30T00:25:37.488Z,10.33
2018-07-30T00:28:05.763Z,10.60
2018-07-30T00:30:36.137Z,10.20
2018-07-30T00:33:09.459Z,9.90
2018-07-30T00:35:38.203Z,9.50
2018-07-30T00:38:07.718Z,9.60
2018-07-30T00:40:36.373Z,9.30
2018-07-30T00:43:05.682Z,9.57
2018-07-30T00:45:34.449Z,9.60
2018-07-30T00:48:05.205Z,10.67
2018-07-30T00:50:33.928Z,10.20
2018-07-30T00:53:02.636Z,10.10
2018-07-30T00:55:32.632Z,9.33
2018-07-30T00:58:01.340Z,9.70
2018-07-30T01:00:30.006Z,9.87
2018-07-30T01:02:58.680Z,9.03
2018-07-30T01:05:31.209Z,9.27
2018-07-30T01:07:59.919Z,10.33
2018-07-30T01:10:28.205Z,9.73
2018-07-30T01:12:56.854Z,10.30
2018-07-30T01:15:27.096Z,10.23
2018-07-30T01:17:56.512Z,9.70
2018-07-30T01:20:26.206Z,10.07
2018-07-30T01:22:55.624Z,10.37
2018-07-30T01:25:24.844Z,10.63
2018-07-30T01:27:54.097Z,10.40
2018-07-30T01:30:22.883Z,10.00
2018-07-30T01:32:51.562Z,10.73
2018-07-30T01:35:20.307Z,10.33
2018-07-30T01:37:48.993Z,10.23
2018-07-30T01:40:17.812Z,10.20
2018-07-30T01:42:46.505Z,11.10
2018-07-30T01:45:15.844Z,10.33
2018-07-30T01:47:44.148Z,10.97
2018-07-30T01:50:13.507Z,10.17
2018-07-30T01:52:42.216Z,10.27
2018-07-30T01:55:10.901Z,10.47
2018-07-30T01:57:39.628Z,9.97
2018-07-30T02:00:09.386Z,10.13
2018-07-30T02:02:43.043Z,10.20
2018-07-30T02:05:11.984Z,10.60
2018-07-30T02:07:41.755Z,11.40
2018-07-30T02:10:12.026Z,10.70
2018-07-30T02:12:46.302Z,11.20
2018-07-30T02:15:17.275Z,11.10
2018-07-30T02:17:47.355Z,11.20
2018-07-30T02:20:17.321Z,11.67
2018-07-30T02:22:45.614Z,10.27
2018-07-30T02:25:15.336Z,10.47
2018-07-30T02:27:44.836Z,10.20
2018-07-30T02:30:14.474Z,11.77
2018-07-30T02:32:43.396Z,10.10
2018-07-30T02:35:12.363Z,11.53
2018-07-30T02:37:41.414Z,10.73
2018-07-30T02:40:09.936Z,10.80
2018-07-30T02:42:39.208Z,10.77
2018-07-30T02:45:09.077Z,11.17
2018-07-30T02:47:38.045Z,12.33
2018-07-30T02:50:08.267Z,10.30
2018-07-30T02:52:37.028Z,11.03
2018-07-30T02:55:07.153Z,11.47
2018-07-30T02:57:37.698Z,10.83
2018-07-30T03:00:08.518Z,9.87
2018-07-30T03:02:37.372Z,10.63
2018-07-30T03:05:06.808Z,10.70
2018-07-30T03:07:40.089Z,10.50
2018-07-30T03:10:08.664Z,10.90
2018-07-30T03:12:37.709Z,11.60
2018-07-30T03:15:06.693Z,11.73
2018-07-30T03:17:36.260Z,11.10
2018-07-30T03:20:05.615Z,12.10
2018-07-30T03:22:35.892Z,11.07
2018-07-30T03:25:05.024Z,11.40
2018-07-30T03:27:34.944Z,11.27
2018-07-30T03:30:05.559Z,11.57
2018-07-30T03:32:34.565Z,11.40
2018-07-30T03:35:04.715Z,10.83
2018-07-30T03:37:34.062Z,12.40
2018-07-30T03:40:02.554Z,11.13
2018-07-30T03:42:31.241Z,11.10
2018-07-30T03:44:59.899Z,12.00
2018-07-30T03:47:28.910Z,11.50
2018-07-30T03:49:57.359Z,11.20
2018-07-30T03:52:27.588Z,10.73
2018-07-30T03:54:56.234Z,11.37
2018-07-30T03:57:25.601Z,11.10
2018-07-30T03:59:53.937Z,11.63
2018-07-30T04:02:22.637Z,12.10
2018-07-30T04:04:51.344Z,11.20
2018-07-30T04:07:19.771Z,11.70
2018-07-30T04:09:48.476Z,11.77
2018-07-30T04:12:17.783Z,11.00
2018-07-30T04:14:46.424Z,10.20
2018-07-30T04:17:15.399Z,11.80
2018-07-30T04:19:44.645Z,11.90
2018-07-30T04:22:13.484Z,12.17
2018-07-30T04:24:42.056Z,12.43
2018-07-30T04:27:10.862Z,12.20
2018-07-30T04:29:39.516Z,11.63
2018-07-30T04:32:08.249Z,11.80
2018-07-30T04:34:37.064Z,12.20
2018-07-30T04:37:06.581Z,11.80
2018-07-30T04:39:35.910Z,11.13
2018-07-30T04:42:04.700Z,10.60
2018-07-30T04:44:33.401Z,10.97
2018-07-30T04:47:02.920Z,11.43
2018-07-30T04:49:31.359Z,10.23
2018-07-30T04:52:02.185Z,10.43
2018-07-30T04:54:31.590Z,10.17
2018-07-30T04:57:01.016Z,10.67
2018-07-30T04:59:30.109Z,10.10
2018-07-30T05:02:00.050Z,9.93
2018-07-30T05:04:28.319Z,10.03
2018-07-30T05:06:57.088Z,9.50
2018-07-30T05:09:27.208Z,9.40
2018-07-30T05:11:57.580Z,9.53
2018-07-30T05:14:26.777Z,9.67
2018-07-30T05:16:55.841Z,8.60
2018-07-30T05:19:25.768Z,9.30
2018-07-30T05:21:54.440Z,9.63
2018-07-30T05:24:24.404Z,9.30
2018-07-30T05:26:53.387Z,9.27
2018-07-30T05:29:22.896Z,8.80
2018-07-30T05:31:51.689Z,9.07
2018-07-30T05:34:21.299Z,9.73
2018-07-30T05:36:49.995Z,9.07
2018-07-30T05:39:18.679Z,8.70
2018-07-30T05:41:47.472Z,9.47
2018-07-30T05:44:17.539Z,8.90
2018-07-30T05:46:46.290Z,9.03
2018-07-30T05:49:19.368Z,9.17
2018-07-30T05:51:48.068Z,9.50
2018-07-30T05:54:17.348Z,9.00
2018-07-30T05:56:47.068Z,9.53
2018-07-30T05:59:16.537Z,9.40
2018-07-30T06:01:45.392Z,9.50
2018-07-30T06:04:16.033Z,9.20
2018-07-30T06:06:46.467Z,10.00
2018-07-30T06:09:20.456Z,9.90
2018-07-30T06:11:49.115Z,10.20
2018-07-30T06:14:17.943Z,9.20
2018-07-30T06:16:47.817Z,9.43
2018-07-30T06:19:18.236Z,8.70
2018-07-30T06:21:48.281Z,9.50
2018-07-30T06:24:21.373Z,9.50
2018-07-30T06:26:52.247Z,10.40
2018-07-30T06:29:21.680Z,8.90
2018-07-30T06:31:52.513Z,9.23
2018-07-30T06:34:22.192Z,9.47
2018-07-30T06:36:52.248Z,9.27
2018-07-30T06:39:22.477Z,9.73
2018-07-30T06:41:51.497Z,9.70
2018-07-30T06:44:21.331Z,9.50
2018-07-30T06:46:54.370Z,9.63
2018-07-30T06:49:23.109Z,9.30
2018-07-30T06:51:51.814Z,9.30
2018-07-30T06:54:22.478Z,8.80
2018-07-30T06:56:52.819Z,9.20
2018-07-30T06:59:25.056Z,9.33
2018-07-30T07:01:54.100Z,9.40
2018-07-30T07:04:29.476Z,8.90
2018-07-30T07:06:59.740Z,7.70
2018-07-30T07:09:29.954Z,8.07
2018-07-30T07:12:00.636Z,8.67
2018-07-30T07:14:29.327Z,8.27
2018-07-30T07:16:58.055Z,8.53
2018-07-30T07:19:27.028Z,8.23
2018-07-30T07:21:55.812Z,8.03
2018-07-30T07:24:24.577Z,8.73
2018-07-30T07:26:53.378Z,7.90
2018-07-30T07:29:22.152Z,8.23
2018-07-30T07:31:50.959Z,8.67
2018-07-30T07:34:19.645Z,8.27
2018-07-30T07:36:48.326Z,8.90
2018-07-30T07:39:21.493Z,8.77
2018-07-30T07:41:50.182Z,8.10
2018-07-30T07:44:18.881Z,8.70
2018-07-30T07:46:47.676Z,9.90
2018-07-30T07:49:20.998Z,9.70
2018-07-30T07:51:49.766Z,8.83
2018-07-30T07:54:18.426Z,8.40
2018-07-30T07:56:47.166Z,8.70
2018-07-30T07:59:17.212Z,8.40
2018-07-30T08:01:45.980Z,9.63
2018-07-30T08:04:14.674Z,8.90
2018-07-30T08:06:43.464Z,8.90
2018-07-30T08:09:12.632Z,9.83
2018-07-30T08:11:41.345Z,9.60
2018-07-30T08:14:10.035Z,10.00
2018-07-30T08:16:39.030Z,9.43
2018-07-30T08:19:07.302Z,9.30
2018-07-30T08:21:35.653Z,9.53
2018-07-30T08:24:04.464Z,8.53
2018-07-30T08:26:32.918Z,8.90
2018-07-30T08:29:01.673Z,9.60
2018-07-30T08:31:30.356Z,9.23
2018-07-30T08:33:59.027Z,9.37
2018-07-30T08:36:27.788Z,9.93
2018-07-30T08:38:56.580Z,9.50
2018-07-30T08:41:25.226Z,9.80
2018-07-30T08:43:53.979Z,9.80
2018-07-30T08:46:22.301Z,10.43
2018-07-30T08:48:51.030Z,10.10
2018-07-30T08:51:19.327Z,9.63
2018-07-30T08:53:48.075Z,9.03
2018-07-30T08:56:17.387Z,9.20
2018-07-30T08:58:45.986Z,9.00
2018-07-30T09:01:14.633Z,9.53
2018-07-30T09:03:43.340Z,9.60
2018-07-30T09:06:12.057Z,9.37
2018-07-30T09:08:40.753Z,9.90
2018-07-30T09:11:09.542Z,8.80
2018-07-30T09:13:38.206Z,9.10
2018-07-30T09:16:06.499Z,9.50
2018-07-30T09:18:35.229Z,9.53
2018-07-30T09:21:04.046Z,8.87
2018-07-30T09:23:32.770Z,8.53
2018-07-30T09:26:02.130Z,9.00
2018-07-30T09:28:30.832Z,8.90
2018-07-30T09:30:59.557Z,9.00
2018-07-30T09:33:29.328Z,8.90
2018-07-30T09:35:58.017Z,8.70
2018-07-30T09:38:26.777Z,8.30
2018-07-30T09:40:55.500Z,9.30
2018-07-30T09:43:24.207Z,9.07
2018-07-30T09:45:53.290Z,8.80
2018-07-30T09:48:22.015Z,8.83
2018-07-30T09:50:50.690Z,7.80
2018-07-30T09:53:19.405Z,8.27
2018-07-30T09:55:48.133Z,8.00
2018-07-30T09:58:16.976Z,8.83
2018-07-30T10:00:50.961Z,9.30
2018-07-30T10:03:19.735Z,8.73
2018-07-30T10:05:48.148Z,9.10
2018-07-30T10:08:17.404Z,8.37
2018-07-30T10:10:45.726Z,8.23
2018-07-30T10:13:14.434Z,7.83
2018-07-30T10:15:44.365Z,9.40
2018-07-30T10:18:13.033Z,8.40
2018-07-30T10:20:41.737Z,8.33
2018-07-30T10:23:10.563Z,9.10
2018-07-30T10:25:39.235Z,8.43
2018-07-30T10:28:08.108Z,7.57
2018-07-30T10:30:36.868Z,9.40
2018-07-30T10:33:05.593Z,9.00
2018-07-30T10:35:34.341Z,9.03
2018-07-30T10:38:03.075Z,8.10
2018-07-30T10:40:31.721Z,8.60
2018-07-30T10:43:00.452Z,7.87
2018-07-30T10:45:29.132Z,7.73
2018-07-30T10:47:57.778Z,7.23
2018-07-30T10:50:26.437Z,7.53
2018-07-30T10:52:55.116Z,7.20
2018-07-30T10:55:23.861Z,7.80
2018-07-30T10:57:52.560Z,6.60
2018-07-30T11:00:21.285Z,6.93
2018-07-30T11:02:50.072Z,7.00
2018-07-30T11:05:18.733Z,6.83
2018-07-30T11:07:47.407Z,6.30
2018-07-30T11:10:16.137Z,6.50
2018-07-30T11:12:44.793Z,7.47
2018-07-30T11:15:14.322Z,6.40
2018-07-30T11:17:42.995Z,6.90
2018-07-30T11:20:11.456Z,6.70
2018-07-30T11:22:40.133Z,6.33
2018-07-30T11:25:08.879Z,5.63
2018-07-30T11:27:37.574Z,5.60
2018-07-30T11:30:06.467Z,6.23
2018-07-30T11:32:35.169Z,5.50
2018-07-30T11:35:03.884Z,5.47
2018-07-30T11:37:32.620Z,5.53
2018-07-30T11:40:01.292Z,5.60
2018-07-30T11:42:30.007Z,5.80
2018-07-30T11:44:58.657Z,5.10
2018-07-30T11:47:31.688Z,5.70
2018-07-30T11:50:00.337Z,5.70
2018-07-30T11:52:29.000Z,5.90
2018-07-30T11:55:06.037Z,5.20
2018-07-30T11:57:35.668Z,5.93
2018-07-30T12:00:08.113Z,6.13
2018-07-30T12:02:43.006Z,4.17
2018-07-30T12:05:11.750Z,4.27
2018-07-30T12:07:40.541Z,4.33
2018-07-30T12:10:09.311Z,5.00
2018-07-30T12:12:38.065Z,4.03
2018-07-30T12:15:06.441Z,5.00
2018-07-30T12:17:35.144Z,4.57
2018-07-30T12:20:08.716Z,4.50
2018-07-30T12:56:06.074Z,4.70
2018-07-30T12:58:34.789Z,5.10
2018-07-30T13:01:03.500Z,5.20
2018-07-30T13:04:16.329Z,5.10
2018-07-30T13:07:47.224Z,4.60
2018-07-30T13:10:16.672Z,6.53
2018-07-30T13:12:45.318Z,4.67
2018-07-30T13:15:14.035Z,5.40
2018-07-30T13:17:42.824Z,5.27
2018-07-30T13:20:11.608Z,5.30
2018-07-30T13:22:39.888Z,5.07
2018-07-30T13:25:09.201Z,5.43
2018-07-30T13:27:37.880Z,5.10
2018-07-30T13:30:07.506Z,4.93
2018-07-30T13:32:36.433Z,5.47
2018-07-30T13:35:05.450Z,5.07
2018-07-30T13:37:34.261Z,4.50
2018-07-30T13:40:02.944Z,4.90
2018-07-30T13:42:31.697Z,4.80
2018-07-30T13:45:00.933Z,4.70
2018-07-30T13:47:29.661Z,5.33
2018-07-30T13:49:59.050Z,4.80
2018-07-30T13:52:27.420Z,5.20
2018-07-30T13:54:56.106Z,4.73
2018-07-30T13:57:24.801Z,6.40
2018-07-30T13:59:53.502Z,5.50
2018-07-30T14:02:21.838Z,5.40
2018-07-30T14:04:50.537Z,4.17
2018-07-30T14:07:19.222Z,4.93
2018-07-30T14:09:47.972Z,5.37
2018-07-30T14:12:17.409Z,5.67
2018-07-30T14:14:46.069Z,5.57
2018-07-30T14:17:18.749Z,5.27
2018-07-30T14:19:47.440Z,5.07
2018-07-30T14:22:17.065Z,5.10
2018-07-30T14:24:46.759Z,5.57
2018-07-30T14:27:19.484Z,5.60
2018-07-30T14:29:47.741Z,5.40
2018-07-30T14:32:17.457Z,4.87
2018-07-30T14:34:46.176Z,5.43
2018-07-30T14:37:18.818Z,5.60
2018-07-30T14:39:47.473Z,5.70
2018-07-30T14:42:16.873Z,5.63
2018-07-30T14:44:45.583Z,5.13
2018-07-30T14:47:14.518Z,5.50
2018-07-30T14:49:43.276Z,6.40
2018-07-30T14:52:12.040Z,6.33
2018-07-30T14:54:40.817Z,6.20
2018-07-30T14:57:09.524Z,5.50
2018-07-30T14:59:38.236Z,6.13
2018-07-30T15:02:06.905Z,6.40
2018-07-30T15:04:35.588Z,5.60
2018-07-30T15:07:04.316Z,5.77
2018-07-30T15:09:33.066Z,6.20
2018-07-30T15:12:01.826Z,5.73
2018-07-30T15:14:30.558Z,6.30
2018-07-30T15:16:59.224Z,6.77
2018-07-30T15:19:27.902Z,6.77
2018-07-30T15:21:56.608Z,5.93
2018-07-30T15:24:25.285Z,5.80
2018-07-30T15:26:54.010Z,5.53
2018-07-30T15:29:22.665Z,6.10
2018-07-30T15:31:51.344Z,5.80
2018-07-30T15:34:20.013Z,6.10
2018-07-30T15:36:48.766Z,6.37
2018-07-30T15:39:17.921Z,5.87
2018-07-30T15:41:46.617Z,5.83
2018-07-30T15:44:15.335Z,6.50
2018-07-30T15:46:44.031Z,6.10
2018-07-30T15:49:12.303Z,5.97
2018-07-30T15:51:41.054Z,6.43
2018-07-30T15:54:10.558Z,6.43
2018-07-30T15:56:39.063Z,5.50
2018-07-30T15:59:07.525Z,6.37
2018-07-30T16:01:36.214Z,6.77
2018-07-30T16:04:04.938Z,6.60
2018-07-30T16:06:33.631Z,6.53
2018-07-30T16:09:02.849Z,7.10
2018-07-30T16:11:31.589Z,8.10
2018-07-30T16:14:00.037Z,7.50
2018-07-30T16:16:28.800Z,7.33
2018-07-30T16:18:57.535Z,7.70
2018-07-30T16:21:26.171Z,7.87
2018-07-30T16:23:54.951Z,7.60
2018-07-30T16:26:24.064Z,7.63
2018-07-30T16:28:52.755Z,7.20
2018-07-30T16:31:21.430Z,7.83
2018-07-30T16:33:50.833Z,7.80
2018-07-30T16:36:19.539Z,7.57
2018-07-30T16:38:48.233Z,7.37
2018-07-30T16:41:17.574Z,8.20
2018-07-30T16:43:46.323Z,7.97
2018-07-30T16:46:15.348Z,7.77
2018-07-30T16:48:43.767Z,7.67
2018-07-30T16:51:12.579Z,8.00
2018-07-30T16:53:41.441Z,8.23
2018-07-30T16:56:10.365Z,7.20
2018-07-30T16:58:39.109Z,7.50
2018-07-30T17:01:07.761Z,7.77
2018-07-30T17:03:36.588Z,8.73
2018-07-30T17:06:05.448Z,8.10
2018-07-30T17:08:34.189Z,8.00
2018-07-30T17:11:02.978Z,7.87
2018-07-30T17:13:31.684Z,7.87
2018-07-30T17:16:00.662Z,8.30
2018-07-30T17:18:29.405Z,7.90
2018-07-30T17:20:58.236Z,7.77
2018-07-30T17:23:26.921Z,7.73
2018-07-30T17:25:55.623Z,7.73
2018-07-30T17:28:24.428Z,7.13
2018-07-30T17:30:53.367Z,7.80
2018-07-30T17:33:22.172Z,9.30
2018-07-30T17:35:50.906Z,9.63
2018-07-30T17:38:19.615Z,8.60
2018-07-30T17:40:48.395Z,8.70
2018-07-30T17:43:18.113Z,8.23
2018-07-30T17:45:47.545Z,17.30
2018-07-30T17:48:17.467Z,18.07
2018-07-30T17:50:46.304Z,8.60
2018-07-30T17:53:19.220Z,8.37
2018-07-30T17:55:48.350Z,8.97
2018-07-30T17:58:18.095Z,8.60
2018-07-30T18:00:47.080Z,7.73
2018-07-30T18:03:16.294Z,7.90
2018-07-30T18:05:45.161Z,11.20
2018-07-30T18:08:13.995Z,11.37
2018-07-30T18:10:42.322Z,14.53
2018-07-30T18:13:11.263Z,14.90
2018-07-30T18:15:42.301Z,12.07
2018-07-30T18:18:11.152Z,13.07
2018-07-30T18:20:39.969Z,10.40
2018-07-30T18:23:08.765Z,11.60
2018-07-30T18:25:37.525Z,11.97
2018-07-30T18:28:06.259Z,13.30
2018-07-30T18:30:34.989Z,15.90
2018-07-30T18:33:03.675Z,13.43
2018-07-30T18:35:32.437Z,11.20
2018-07-30T18:38:01.147Z,8.73
2018-07-30T18:40:29.914Z,9.30
2018-07-30T18:42:58.661Z,9.93
2018-07-30T18:45:27.425Z,9.40
2018-07-30T18:47:56.419Z,10.13
2018-07-30T18:50:25.118Z,8.93
2018-07-30T18:52:53.881Z,10.10
2018-07-30T18:55:22.631Z,10.43
2018-07-30T18:57:51.535Z,10.27
2018-07-30T19:00:19.869Z,11.47
2018-07-30T19:02:48.599Z,8.90
2018-07-30T19:05:18.063Z,9.13
2018-07-30T19:07:46.732Z,9.30
2018-07-30T19:10:19.580Z,9.73
2018-07-30T19:12:48.560Z,8.60
2018-07-30T19:15:17.881Z,8.90
2018-07-30T19:17:46.602Z,8.93
2018-07-30T19:20:16.277Z,8.93
2018-07-30T19:22:45.232Z,9.00
2018-07-30T19:25:14.071Z,8.10
2018-07-30T19:27:42.834Z,9.47
2018-07-30T19:30:11.584Z,8.77
2018-07-30T19:32:40.583Z,9.70
2018-07-30T19:35:09.673Z,9.40
2018-07-30T19:37:38.614Z,10.20
2018-07-30T19:40:07.375Z,9.70
2018-07-30T19:42:36.157Z,11.67
2018-07-30T19:45:05.570Z,10.20
2018-07-30T19:47:34.354Z,9.30
2018-07-30T19:50:03.372Z,9.87
2018-07-30T19:52:32.356Z,9.80
2018-07-30T19:55:01.064Z,9.70
2018-07-30T19:57:30.210Z,11.20
2018-07-30T19:59:59.350Z,10.10
2018-07-30T20:02:28.128Z,10.27
2018-07-30T20:04:57.067Z,9.63
2018-07-30T20:07:26.129Z,9.43
2018-07-30T20:09:55.220Z,10.17
2018-07-30T20:12:23.649Z,10.20
2018-07-30T20:14:52.390Z,9.50
2018-07-30T20:17:21.154Z,9.23
2018-07-30T20:19:50.096Z,8.73
2018-07-30T20:22:18.877Z,8.77
2018-07-30T20:24:47.905Z,9.80
2018-07-30T20:27:17.333Z,9.97
2018-07-30T20:29:46.292Z,10.10
2018-07-30T20:32:15.963Z,9.83
2018-07-30T20:34:44.693Z,9.13
2018-07-30T20:37:13.371Z,9.10
2018-07-30T20:39:42.057Z,10.40
2018-07-30T20:42:10.836Z,10.47
2018-07-30T20:44:39.576Z,10.90
2018-07-30T20:47:08.418Z,10.43
2018-07-30T20:49:37.187Z,10.20
2018-07-30T20:52:06.021Z,11.50
2018-07-30T20:54:34.679Z,12.20
2018-07-30T20:57:03.481Z,10.60
2018-07-30T20:59:32.147Z,11.67
2018-07-30T21:02:01.873Z,10.27
2018-07-30T21:04:30.653Z,10.43
2018-07-30T21:06:59.504Z,10.63
2018-07-30T21:09:28.176Z,11.13
2018-07-30T21:11:56.867Z,10.97
2018-07-30T21:14:25.533Z,10.90
2018-07-30T21:16:54.269Z,10.77
2018-07-30T21:19:22.992Z,10.93
2018-07-30T21:21:51.767Z,9.90
2018-07-30T21:24:20.508Z,10.23
2018-07-30T21:26:50.853Z,10.10
2018-07-30T21:29:20.201Z,10.33
2018-07-30T21:31:48.968Z,10.00
2018-07-30T21:34:19.833Z,11.30
2018-07-30T21:36:48.577Z,10.03
2018-07-30T21:39:18.004Z,12.00
2018-07-30T21:41:46.885Z,10.67
2018-07-30T21:44:16.577Z,10.00
2018-07-30T21:46:45.437Z,9.67
2018-07-30T21:49:16.260Z,9.20
2018-07-30T21:51:45.036Z,9.70
2018-07-30T21:54:13.820Z,8.80
2018-07-30T21:56:44.455Z,8.80
2018-07-30T21:59:13.191Z,8.30
2018-07-30T22:01:42.030Z,8.57
2018-07-30T22:04:10.818Z,8.20
2018-07-30T22:06:41.100Z,8.77
2018-07-30T22:09:13.338Z,8.67
2018-07-30T22:11:42.847Z,8.60
2018-07-30T22:14:12.553Z,8.70
2018-07-30T22:16:41.234Z,8.87
2018-07-30T22:19:10.038Z,9.40
2018-07-30T22:21:38.728Z,8.60
2018-07-30T22:24:07.696Z,7.63
2018-07-30T22:26:36.391Z,9.97
2018-07-30T22:29:05.156Z,9.43
2018-07-30T22:31:33.893Z,8.77
2018-07-30T22:34:05.448Z,10.10
2018-07-30T22:36:34.161Z,10.00
2018-07-30T22:39:03.294Z,11.57
2018-07-30T22:41:33.209Z,12.03
2018-07-30T22:44:01.911Z,11.17
2018-07-30T22:46:30.701Z,10.90
2018-07-30T22:48:59.380Z,12.20
2018-07-30T22:51:28.829Z,11.00
2018-07-30T22:53:57.756Z,10.20
2018-07-30T22:56:26.490Z,10.80
2018-07-30T22:58:55.223Z,10.73
2018-07-30T23:01:23.908Z,11.47
2018-07-30T23:03:52.639Z,9.87
2018-07-30T23:06:21.398Z,10.50
2018-07-30T23:08:50.923Z,10.60
2018-07-30T23:11:19.572Z,11.10
2018-07-30T23:13:48.316Z,10.53
2018-07-30T23:16:19.865Z,11.10
2018-07-30T23:18:48.593Z,10.20
2018-07-30T23:21:18.469Z,10.80
2018-07-30T23:23:47.165Z,11.40
2018-07-30T23:26:16.133Z,12.53
2018-07-30T23:28:44.877Z,11.73
2018-07-30T23:31:13.612Z,10.10
2018-07-30T23:33:43.184Z,11.03
2018-07-30T23:36:11.971Z,10.13
2018-07-30T23:38:40.711Z,10.50
2018-07-30T23:41:09.417Z,10.07
2018-07-30T23:43:38.297Z,11.43
2018-07-30T23:46:06.963Z,10.90
2018-07-30T23:48:35.603Z,11.37
2018-07-30T23:51:04.382Z,11.47
2018-07-30T23:53:33.006Z,10.90
2018-07-30T23:56:01.739Z,11.03
2018-07-30T23:58:30.404Z,11.23
